Coon Rapids, IA (50058)

2:28 AM CDT on September 16, 2014 (GMT -0500)
New Cooperative-Coon Rapids | Change Station
CLOSE
Current Station
Personal Weather Station
Location: Coon Rapids, IA
Elevation: 1138 ft
Nearby Weather Stations

Elev 1138 ft 41.87 °N, 94.69 °W | Updated 10 minutes ago

Clear
Clear
40.9 °F
Feels Like 41 °F
N
0.0
Wind Variable Wind from ESE

Today
High -- | Low -- °F
--% Chance of Precip.
Yesterday
High -- | Low -- °F
Precip. -- in
6:59 AM 7:26 PM
Waning Gibbous, 48% visible
Pressure 30.27 in
Visibility 3.0 miles
Clouds Clear
Windchill 41 °F
Dew Point 39 °F
Humidity 94%
Rainfall 0.00 in
Snow Depth Not available.
UV 0 out of 12
Pollen 4.10 out of 12
Air Quality Not available.
Flu Activity Not available.
METAR KCIN 160715Z AUTO 27003KT 3SM BR CLR 03/03 A3027 RMK AO2

More Conditions Fewer Conditions

Pressure 30.27 in
Visibility 3.0 miles
Clouds Clear
Windchill 41 °F
Dew Point 39 °F
Humidity 94%
Rainfall 0.00 in
Snow Depth Not available.
UV 0 out of 12
Pollen 4.10 out of 12
Air Quality Not available.
Flu Activity Not available.
METAR KCIN 160715Z AUTO 27003KT 3SM BR CLR 03/03 A3027 RMK AO2

More Conditions Fewer Conditions

10-Day Weather Forecast

Almanac

Astronomy

Sep. 16, 2014 Rise Set
Actual Time 6:59 AM CDT 7:26 PM CDT
Civil Twilight 6:31 AM CDT 7:54 PM CDT
Nautical Twilight 5:59 AM CDT 8:27 PM CDT
Astronomical Twilight 5:25 AM CDT 9:00 PM CDT
Moon 12:06 AM CDT 2:54 PM CDT
Length of Visible Light 13h 22m
Length of Day
12h 26m
Tomorrow will be 2m 47s shorter.
Waning Gibbous, 48% of the Moon is Illuminated
Today
Waning Gibbous
Sep 24
New
Oct 1
First Quarter
Oct 8
Full
Oct 15
Last Quarter

Today's Extremes

State Highs State Lows

Community

WunderPhotos

Upload Photos

1,753,699 photos uploaded!

Nearby

Snow Depth

Station Depth Elevation
No new snow has been reported.

Earthquake Activity

City Distance Mag. Time & Date
No recent earthquake activity has been reported nearby.
Minimum magnitude displayed is 2.5.

Coastal Water Temperatures

Place Temperature
No Stations Reporting

Nearby Weather Stations